Data for 01/04/2014

Time Sea-Level Adjusted Pressure Absolute Pressure Temperature Relative Humidity Dew Point   
(mb) (inHg) (mb) (inHg) (C) (F) (%) (C) (F)
00:05 1014 29.94 844 24.92 -5.2 22.7 83 -7.6 18.3
00:10 1014 29.94 844 24.92 -5.2 22.7 83 -7.6 18.4
00:15 1015 29.97 844 24.92 -5.2 22.7 83 -7.6 18.3
00:20 1015 29.97 844 24.92 -5.2 22.7 84 -7.5 18.5
00:25 1015 29.97 844 24.92 -5.1 22.8 83 -7.6 18.3
00:30 1015 29.97 844 24.92 -5.1 22.9 84 -7.4 18.7
00:35 1015 29.97 844 24.92 -5 23 83 -7.5 18.6
00:40 1015 29.97 844 24.92 -5 23 82 -7.6 18.3
00:45 1015 29.97 844 24.92 -5 22.9 82 -7.6 18.3
00:50 1015 29.97 844 24.92 -5 23 82 -7.6 18.3
00:55 1015 29.97 844 24.92 -5 23 81 -7.7 18.1
01:00 1015 29.97 844 24.92 -5.1 22.9 81 -7.8 17.9
01:05 1015 29.97 844 24.92 -5.1 22.8 81 -7.9 17.7
01:10 1015 29.97 844 24.92 -5.1 22.8 81 -7.9 17.8
01:15 1015 29.97 844 24.92 -5.2 22.7 82 -7.8 17.9
01:20 1015 29.97 844 24.92 -5.2 22.6 82 -7.9 17.7
01:25 1015 29.97 844 24.92 -5.3 22.4 83 -7.8 17.9
01:30 1015 29.97 844 24.92 -5.4 22.2 83 -7.9 17.9
01:35 1015 29.97 844 24.92 -5.5 22 84 -7.8 17.9
01:40 1015 29.97 844 24.92 -5.4 22.2 84 -7.8 18
01:45 1015 29.97 844 24.92 -5.5 22.2 85 -7.7 18.2
01:50 1015 29.97 844 24.92 -5.7 21.7 85 -7.8 17.9
01:55 1015 29.97 844 24.92 -5.9 21.5 86 -7.9 17.8
02:00 1015 29.97 844 24.92 -5.8 21.5 86 -7.8 17.9
02:05 1015 29.97 844 24.92 -5.9 21.4 86 -7.9 17.8
02:10 1015 29.97 844 24.92 -6.1 21 86 -8.1 17.4
02:15 1015 29.97 844 24.92 -6.3 20.6 87 -8.1 17.4
02:20 1015 29.97 844 24.92 -6.5 20.4 88 -8.2 17.3
02:25 1015 29.97 844 24.92 -6.4 20.5 88 -8.1 17.4
02:30 1015 29.97 844 24.92 -6.2 20.8 87 -8.1 17.5
02:35 1015 29.97 844 24.92 -6.2 20.8 87 -8 17.5
02:40 1015 29.97 844 24.92 -6.2 20.8 87 -8 17.5
02:45 1015 29.97 844 24.92 -6.3 20.6 88 -8.1 17.5
02:50 1015 29.97 844 24.92 -6.3 20.7 87 -8.1 17.5
02:55 1015 29.97 844 24.92 -6.2 20.8 88 -8 17.6
03:00 1015 29.97 844 24.92 -6.2 20.9 87 -7.9 17.7
03:05 1015 29.97 844 24.92 -6.1 21 87 -7.9 17.8
03:10 1015 29.97 844 24.92 -6.1 21 87 -8 17.7
03:15 1015 29.97 844 24.92 -6.2 20.8 87 -8.1 17.5
03:20 1015 29.97 844 24.92 -6.2 20.8 87 -8 17.5
03:25 1015 29.97 844 24.92 -6.1 21 87 -8 17.6
03:30 1015 29.97 844 24.92 -6.1 20.9 86 -8.1 17.4
03:35 1015 29.97 844 24.92 -6.1 21.1 86 -8 17.5
03:40 1015 29.97 844 24.92 -6 21.2 86 -8.1 17.5
03:45 1015 29.97 844 24.92 -6 21.2 85 -8.1 17.4
03:50 1015 29.97 845 24.95 -6 21.2 85 -8.1 17.5
03:55 1015 29.97 845 24.95 -6 21.1 85 -8.1 17.4
04:00 1015 29.97 845 24.95 -5.9 21.4 85 -8 17.6
04:05 1015 29.97 845 24.95 -5.8 21.6 85 -7.9 17.8
04:10 1015 29.97 845 24.95 -5.8 21.5 86 -7.9 17.8
04:15 1015 29.97 845 24.95 -5.9 21.4 86 -7.9 17.8
04:20 1015 29.97 845 24.95 -5.9 21.4 86 -7.9 17.8
04:25 1015 29.97 845 24.95 -5.9 21.4 86 -7.9 17.8
04:30 1016 30 845 24.95 -5.9 21.3 86 -7.9 17.8
04:35 1016 30 845 24.95 -5.9 21.4 86 -7.8 17.9
04:40 1016 30 845 24.95 -5.8 21.5 86 -7.7 18.1
04:45 1016 30 845 24.95 -5.8 21.5 87 -7.7 18.1
04:50 1016 30 845 24.95 -5.8 21.5 86 -7.7 18.1
04:55 1016 30 845 24.95 -5.8 21.5 86 -7.8 17.9
05:00 1016 30 845 24.95 -5.8 21.5 86 -7.8 17.9
05:05 1016 30 845 24.95 -5.9 21.4 86 -7.8 18
05:10 1016 30 845 24.95 -5.9 21.4 86 -7.8 17.9
05:15 1016 30 845 24.95 -5.9 21.4 86 -7.8 17.9
05:20 1016 30 845 24.95 -5.9 21.4 86 -7.8 17.9
05:25 1016 30 845 24.95 -6 21.3 86 -7.9 17.8
05:30 1016 30 845 24.95 -6 21.1 86 -8 17.6
05:35 1016 30 845 24.95 -6.3 20.7 88 -8 17.5
05:40 1016 30 845 24.95 -6.3 20.6 88 -8.1 17.5
05:45 1016 30 845 24.95 -6.5 20.3 87 -8.3 17.1
05:50 1016 30 845 24.95 -6.7 19.9 88 -8.4 16.8
05:55 1016 30 845 24.95 -6.7 19.9 88 -8.4 16.9
06:00 1016 30 845 24.95 -6.6 20.1 87 -8.4 16.9
06:05 1016 30 845 24.95 -6.6 20.2 87 -8.5 16.8
06:10 1016 30 845 24.95 -6.5 20.3 86 -8.4 16.8
06:15 1016 30 845 24.95 -6.4 20.4 85 -8.5 16.7
06:20 1016 30 845 24.95 -6.4 20.5 85 -8.5 16.7
06:25 1016 30 845 24.95 -6.4 20.5 85 -8.5 16.8
06:30 1016 30 845 24.95 -6.4 20.5 85 -8.5 16.7
06:35 1016 30 845 24.95 -6.3 20.6 85 -8.4 16.9
06:40 1016 30 845 24.95 -6.3 20.7 85 -8.4 16.9
06:45 1016 30 845 24.95 -6.2 20.9 85 -8.4 16.9
06:50 1016 30 845 24.95 -6.2 20.9 85 -8.3 17.1
06:55 1016 30 845 24.95 -6.2 20.9 85 -8.3 17.1
07:00 1016 30 845 24.95 -6.2 20.9 85 -8.3 17.1
07:05 1016 30 845 24.95 -6.2 20.9 85 -8.3 17.1
07:10 1016 30 845 24.95 -6.1 21 86 -8.1 17.4
07:15 1016 30 845 24.95 -6.2 20.9 87 -8.1 17.5
07:20 1016 30 845 24.95 -6.2 20.8 87 -8.1 17.5
07:25 1016 30 845 24.95 -6.2 20.8 87 -8 17.5
07:30 1016 30 845 24.95 -6.2 20.8 87 -8 17.6
07:35 1016 30 845 24.95 -6.3 20.7 87 -8.1 17.5
07:40 1016 30 845 24.95 -6.3 20.6 88 -8.1 17.5
07:45 1016 30 845 24.95 -6.3 20.6 88 -8 17.6
07:50 1016 30 845 24.95 -6.4 20.5 88 -8 17.5
07:55 1016 30 845 24.95 -6.4 20.5 88 -8 17.6
08:00 1016 30 845 24.95 -6.3 20.6 88 -8 17.6
08:05 1016 30 845 24.95 -6.3 20.6 88 -8 17.6
08:10 1016 30 845 24.95 -6.3 20.6 88 -7.9 17.7
08:15 1016 30 845 24.95 -6.3 20.7 88 -7.9 17.8
08:20 1016 30 845 24.95 -6.2 20.8 88 -7.9 17.8
08:25 1016 30 845 24.95 -6.2 20.8 87 -8 17.6
08:30 1016 30 845 24.95 -6.2 20.8 88 -7.9 17.7
08:35 1016 30 845 24.95 -6.2 20.8 88 -7.9 17.8
08:40 1016 30 845 24.95 -6.3 20.7 88 -7.9 17.8
08:45 1016 30 845 24.95 -6.3 20.7 88 -7.9 17.8
08:50 1016 30 845 24.95 -6.3 20.6 88 -7.9 17.7
08:55 1016 30 845 24.95 -6.3 20.6 89 -7.9 17.8
09:00 1016 30 845 24.95 -6.4 20.5 89 -7.9 17.8
09:05 1016 30 845 24.95 -6.3 20.6 90 -7.8 18
09:10 1016 30 845 24.95 -6.2 20.9 88 -7.8 17.9
09:15 1016 30 845 24.95 -6 21.1 88 -7.7 18.1
09:20 1016 30 845 24.95 -6 21.1 88 -7.7 18.2
09:25 1016 30 845 24.95 -6 21.3 88 -7.6 18.3
09:30 1016 30 845 24.95 -5.8 21.6 88 -7.5 18.5
09:35 1016 30 845 24.95 -5.6 21.9 87 -7.5 18.5
09:40 1016 30 845 24.95 -5.5 22.1 86 -7.4 18.6
09:45 1016 30 845 24.95 -5.5 22.1 87 -7.3 18.8
09:50 1016 30 845 24.95 -5.5 22.1 88 -7.2 19
09:55 1016 30 845 24.95 -5.6 21.9 89 -7.2 19
10:00 1016 30 846 24.98 -5.7 21.7 89 -7.3 18.9
10:05 1016 30 846 24.98 -5.8 21.6 90 -7.2 19.1
10:10 1017 30.03 846 24.98 -5.7 21.8 89 -7.2 19.1
10:15 1017 30.03 846 24.98 -5.6 21.9 89 -7.1 19.2
10:20 1017 30.03 846 24.98 -5.6 21.8 89 -7.2 19.1
10:25 1017 30.03 846 24.98 -5.7 21.7 90 -7.1 19.3
10:30 1017 30.03 846 24.98 -5.5 22.1 89 -7 19.4
10:35 1017 30.03 846 24.98 -5.2 22.6 87 -7 19.3
10:40 1017 30.03 846 24.98 -5 23 86 -7 19.4
10:45 1017 30.03 846 24.98 -5 23 86 -7 19.3
10:50 1017 30.03 846 24.98 -5 23.1 86 -6.9 19.6
10:55 1017 30.03 846 24.98 -4.9 23.2 86 -6.9 19.5
11:00 1017 30.03 846 24.98 -4.9 23.2 86 -6.9 19.6
11:05 1017 30.03 846 24.98 -4.8 23.3 86 -6.8 19.8
11:10 1017 30.03 847 25.01 -4.9 23.2 85 -7 19.5
11:15 1017 30.03 847 25.01 -5.1 22.9 87 -7 19.4
11:20 1017 30.03 847 25.01 -5.2 22.7 87 -7 19.4
11:25 1017 30.03 847 25.01 -5.2 22.7 87 -7 19.5
11:30 1018 30.06 847 25.01 -5.3 22.5 87 -7.1 19.3
11:35 1018 30.06 847 25.01 -5.4 22.3 87 -7.2 19
11:40 1018 30.06 847 25.01 -5.5 22 88 -7.3 18.9
11:45 1018 30.06 847 25.01 -5.5 22.1 86 -7.4 18.6
11:50 1018 30.06 847 25.01 -5.5 22.1 86 -7.5 18.5
11:55 1018 30.06 847 25.01 -5.4 22.3 84 -7.6 18.3
12:00 1018 30.06 847 25.01 -5.3 22.4 83 -7.9 17.8
12:05 1018 30.06 847 25.01 -5.2 22.7 80 -8.1 17.4
12:10 1018 30.06 847 25.01 -5 23 79 -8.1 17.3
12:15 1018 30.06 847 25.01 -5 23 79 -8.1 17.3
12:20 1018 30.06 847 25.01 -5 23.1 77 -8.4 16.8
12:25 1018 30.06 847 25.01 -4.8 23.3 76 -8.4 17
12:30 1018 30.06 847 25.01 -4.6 23.8 74 -8.6 16.5
12:35 1018 30.06 847 25.01 -4.4 24.1 71 -8.9 16
12:40 1018 30.06 847 25.01 -4.3 24.3 70 -8.9 15.9
12:45 1018 30.06 847 25.01 -4.1 24.6 72 -8.4 16.9
12:50 1018 30.06 847 25.01 -4 24.8 71 -8.4 16.8
12:55 1018 30.06 847 25.01 -3.9 25 72 -8.3 17.1
13:00 1018 30.06 847 25.01 -3.9 25 71 -8.5 16.8
13:05 1018 30.06 847 25.01 -3.9 25 70 -8.5 16.7
13:10 1018 30.06 847 25.01 -3.9 25 73 -8.1 17.4
13:15 1018 30.06 847 25.01 -4.1 24.7 74 -8 17.6
13:20 1018 30.06 847 25.01 -4.2 24.4 75 -8 17.6
13:25 1018 30.06 847 25.01 -4.2 24.5 75 -8 17.7
13:30 1018 30.06 847 25.01 -4.3 24.3 77 -7.7 18.1
13:35 1018 30.06 847 25.01 -4.4 24.1 80 -7.3 18.8
13:40 1018 30.06 847 25.01 -4.6 23.6 82 -7.2 19
13:45 1018 30.06 847 25.01 -4.8 23.3 80 -7.8 18
13:50 1018 30.06 847 25.01 -5 22.9 79 -8.1 17.4
13:55 1018 30.06 847 25.01 -5.1 22.8 78 -8.3 17
14:00 1018 30.06 847 25.01 -5.1 22.9 78 -8.4 16.9
14:05 1018 30.06 847 25.01 -5 23 77 -8.4 16.8
14:10 1018 30.06 847 25.01 -5 23 77 -8.4 16.9
14:15 1018 30.06 847 25.01 -4.9 23.2 75 -8.6 16.5
14:20 1018 30.06 847 25.01 -4.8 23.3 72 -9.1 15.6
14:25 1018 30.06 847 25.01 -4.8 23.3 72 -9.2 15.4
14:30 1018 30.06 847 25.01 -4.9 23.1 72 -9.3 15.3
14:35 1018 30.06 847 25.01 -4.9 23.2 73 -9.1 15.7
14:40 1018 30.06 847 25.01 -5.3 22.4 75 -9.2 15.5
14:45 1018 30.06 847 25.01 -6.1 21.1 77 -9.4 15
14:50 1018 30.06 847 25.01 -6.5 20.4 78 -9.7 14.5
14:55 1018 30.06 847 25.01 -6.3 20.6 76 -9.9 14.2
15:00 1018 30.06 847 25.01 -6.2 20.9 75 -9.9 14.1
15:05 1018 30.06 847 25.01 -5.8 21.5 74 -9.8 14.3
15:10 1018 30.06 847 25.01 -5.8 21.6 73 -9.9 14.1
15:15 1018 30.06 848 25.04 -6.2 20.9 75 -9.9 14.3
15:20 1018 30.06 848 25.04 -5.9 21.5 73 -10 13.9
15:25 1018 30.06 848 25.04 -5.3 22.4 68 -10.3 13.5
15:30 1018 30.06 848 25.04 -5.3 22.5 70 -9.9 14.2
15:35 1019 30.09 848 25.04 -5.4 22.2 72 -9.8 14.4
15:40 1019 30.09 848 25.04 -6.2 20.8 75 -10 14
15:45 1019 30.09 848 25.04 -6.8 19.8 76 -10.3 13.5
15:50 1019 30.09 848 25.04 -6.7 20 76 -10.2 13.6
15:55 1019 30.09 848 25.04 -6.4 20.5 74 -10.2 13.6
16:00 1019 30.09 848 25.04 -6.3 20.7 73 -10.4 13.2
16:05 1019 30.09 848 25.04 -6.2 20.8 71 -10.7 12.8
16:10 1019 30.09 848 25.04 -6.3 20.7 70 -10.9 12.4
16:15 1019 30.09 848 25.04 -6.5 20.3 71 -11 12.2
16:20 1019 30.09 848 25.04 -7 19.5 72 -11.3 11.7
16:25 1019 30.09 848 25.04 -7.2 19 73 -11.4 11.6
16:30 1019 30.09 848 25.04 -7.5 18.6 73 -11.5 11.3
16:35 1019 30.09 848 25.04 -7.5 18.5 74 -11.4 11.5
16:40 1019 30.09 848 25.04 -7.5 18.4 74 -11.4 11.5
16:45 1019 30.09 848 25.04 -7.6 18.3 74 -11.5 11.3
16:50 1019 30.09 848 25.04 -7.6 18.2 74 -11.6 11.1
16:55 1019 30.09 848 25.04 -7.7 18.2 74 -11.6 11.2
17:00 1019 30.09 848 25.04 -7.6 18.3 74 -11.6 11.2
17:05 1019 30.09 848 25.04 -7.6 18.3 73 -11.6 11.2
17:10 1019 30.09 848 25.04 -7.6 18.3 74 -11.4 11.5
17:15 1019 30.09 848 25.04 -7.6 18.4 75 -11.3 11.7
17:20 1019 30.09 848 25.04 -7.5 18.5 75 -11.2 11.9
17:25 1019 30.09 849 25.07 -7.5 18.6 76 -11 12.2
17:30 1019 30.09 849 25.07 -7.4 18.6 75 -11.1 12
17:35 1019 30.09 849 25.07 -7.4 18.6 76 -10.9 12.3
17:40 1019 30.09 849 25.07 -7.5 18.6 78 -10.7 12.7
17:45 1019 30.09 849 25.07 -7.5 18.5 77 -10.8 12.5
17:50 1019 30.09 849 25.07 -7.6 18.4 80 -10.5 13.1
17:55 1019 30.09 849 25.07 -7.5 18.6 77 -10.8 12.5
18:00 1020 30.12 849 25.07 -7.6 18.4 76 -11.1 12
18:05 1020 30.12 849 25.07 -7.7 18.2 75 -11.4 11.6
18:10 1020 30.12 849 25.07 -7.7 18.2 74 -11.5 11.2
18:15 1020 30.12 849 25.07 -7.7 18.1 73 -11.8 10.7
18:20 1020 30.12 849 25.07 -7.8 17.9 73 -11.9 10.6
18:25 1020 30.12 849 25.07 -8 17.5 74 -12 10.4
18:30 1020 30.12 849 25.07 -8.2 17.3 74 -12 10.3
18:35 1020 30.12 849 25.07 -8.2 17.3 72 -12.4 9.6
18:40 1020 30.12 849 25.07 -8.3 17 73 -12.4 9.6
18:45 1019 30.09 849 25.07 -8.4 16.8 72 -12.6 9.3
18:50 1020 30.12 849 25.07 -8.5 16.7 73 -12.5 9.5
18:55 1020 30.12 849 25.07 -8.6 16.6 73 -12.6 9.4
19:00 1020 30.12 849 25.07 -8.6 16.5 73 -12.6 9.4
19:05 1020 30.12 849 25.07 -8.6 16.4 72 -12.8 8.9
19:10 1020 30.12 849 25.07 -8.8 16.2 72 -13 8.7
19:15 1020 30.12 849 25.07 -8.9 16 74 -12.7 9.2
19:20 1020 30.12 849 25.07 -9 15.8 75 -12.7 9.2
19:25 1020 30.12 849 25.07 -9.1 15.6 76 -12.6 9.3
19:30 1020 30.12 849 25.07 -9.2 15.5 75 -12.8 9
19:35 1020 30.12 849 25.07 -9.1 15.6 75 -12.8 9
19:40 1020 30.12 849 25.07 -9.1 15.7 75 -12.7 9.2
19:45 1020 30.12 849 25.07 -9.1 15.6 77 -12.5 9.5
19:50 1020 30.12 849 25.07 -9.3 15.2 78 -12.5 9.6
19:55 1020 30.12 849 25.07 -9.5 14.8 78 -12.7 9.2
20:00 1020 30.12 849 25.07 -9.7 14.6 79 -12.7 9.1
20:05 1020 30.12 849 25.07 -9.8 14.4 78 -12.8 8.9
20:10 1020 30.12 849 25.07 -9.9 14.1 79 -12.9 8.8
20:15 1020 30.12 849 25.07 -10.1 13.9 80 -12.9 8.8
20:20 1020 30.12 849 25.07 -10.1 13.9 80 -12.9 8.7
20:25 1020 30.12 849 25.07 -10.1 13.9 80 -12.9 8.8
20:30 1020 30.12 849 25.07 -10 13.9 81 -12.7 9.1
20:35 1020 30.12 849 25.07 -10 14 78 -13.1 8.4
20:40 1020 30.12 849 25.07 -10.1 13.9 79 -13 8.5
20:45 1020 30.12 849 25.07 -10 14 80 -12.9 8.8
20:50 1020 30.12 849 25.07 -10.1 13.8 80 -13 8.7
20:55 1020 30.12 849 25.07 -10.1 13.8 80 -12.9 8.8
21:00 1020 30.12 849 25.07 -10.1 13.9 81 -12.8 9
21:05 1020 30.12 849 25.07 -10.2 13.6 81 -12.8 8.9
21:10 1020 30.12 849 25.07 -10.2 13.7 82 -12.7 9.1
21:15 1020 30.12 849 25.07 -10.1 13.8 81 -12.8 9
21:20 1020 30.12 849 25.07 -10.1 13.8 80 -12.9 8.8
21:25 1020 30.12 850 25.1 -10.1 13.8 80 -13 8.6
21:30 1020 30.12 849 25.07 -10.2 13.7 79 -13.1 8.4
21:35 1020 30.12 849 25.07 -10.2 13.7 79 -13.2 8.3
21:40 1020 30.12 849 25.07 -10.2 13.7 79 -13.2 8.2
21:45 1020 30.12 849 25.07 -10.2 13.7 79 -13.2 8.3
21:50 1020 30.12 849 25.07 -10.2 13.7 79 -13.2 8.3
21:55 1020 30.12 850 25.1 -10.1 13.7 79 -13.1 8.4
22:00 1020 30.12 850 25.1 -10.1 13.9 78 -13.2 8.3
22:05 1020 30.12 850 25.1 -10.1 13.8 78 -13.3 8.1
22:10 1020 30.12 850 25.1 -10.1 13.8 78 -13.3 8.1
22:15 1020 30.12 850 25.1 -10 14 78 -13.2 8.3
22:20 1020 30.12 850 25.1 -9.9 14.2 78 -13 8.6
22:25 1020 30.12 850 25.1 -9.8 14.3 80 -12.7 9.1
22:30 1021 30.15 850 25.1 -9.9 14.2 80 -12.7 9.1
22:35 1021 30.15 850 25.1 -9.9 14.1 81 -12.7 9.2
22:40 1020 30.12 850 25.1 -10 14 80 -12.8 9
22:45 1020 30.12 850 25.1 -10 14 81 -12.7 9.1
22:50 1021 30.15 850 25.1 -10.1 13.9 81 -12.8 9
22:55 1021 30.15 850 25.1 -10.1 13.8 81 -12.8 8.9
23:00 1021 30.15 850 25.1 -10.2 13.7 80 -12.9 8.7
23:05 1021 30.15 850 25.1 -10.3 13.4 82 -12.8 8.9
23:10 1021 30.15 850 25.1 -10.4 13.3 82 -12.9 8.7
23:15 1021 30.15 850 25.1 -10.5 13.1 82 -13.1 8.4
23:20 1021 30.15 850 25.1 -10.8 12.6 83 -13.1 8.4
23:25 1021 30.15 850 25.1 -10.9 12.4 83 -13.2 8.2
23:30 1021 30.15 850 25.1 -10.9 12.4 83 -13.2 8.2
23:35 1021 30.15 850 25.1 -11 12.3 84 -13.2 8.2
23:40 1021 30.15 850 25.1 -10.9 12.5 84 -13.1 8.4
23:45 1021 30.15 850 25.1 -10.7 12.7 83 -13 8.6
23:50 1021 30.15 850 25.1 -10.6 12.9 82 -13.1 8.4
23:55 1021 30.15 850 25.1 -10.6 12.9 82 -13.2 8.3
24:00 1021 30.15 850 25.1 -10.6 12.9 83 -13 8.5